• Join FlightAware (Why Join?)
  • Login
  • US Flag 
01:18AM EDT


 

Airport Tracker/Info


-or-


 

Live Flight TrackerFlight Track Log ✈ CSN3452 ✈ 16-Apr-2013 ✈ ZPPP / KMG - ZGSZ / SZX

Flight Track Log - Related Links

Times and Time Zones

All times are in EDT time to prevent confusion due to time zone crossing. See the CSN3452 flight status page for this flight to view local times or setup timezone preferences in your user account.

Time Position Orientation Groundspeed Altitude Reporting Facility
EDT Latitude Longitude Course Direction KTS MPH feet Rate Location/Type
09:13AM 25.0735 103.0810 102° East  Level Estimated
09:14AM 25.0449 103.2328 102° East  Level Estimated
09:15AM 25.0162 103.3845 102° East  Level Estimated
09:16AM 24.9873 103.5361 102° East  Level Estimated
09:17AM 24.9583 103.6876 102° East  Level Estimated
09:18AM 24.9291 103.8391 102° East  Level Estimated
09:19AM 24.8997 103.9905 102° East  Level Estimated
09:20AM 24.8702 104.1418 102° East  Level Estimated
09:21AM 24.8406 104.2931 102° East  Level Estimated
09:22AM 24.8108 104.4443 102° East  Level Estimated
09:23AM 24.7808 104.5954 102° East  Level Estimated
09:24AM 24.7507 104.7465 102° East  Level Estimated
09:25AM 24.7204 104.8974 102° East  Level Estimated
09:26AM 24.6900 105.0483 102° East  Level Estimated
09:27AM 24.6595 105.1991 103° East  Level Estimated
09:28AM 24.6287 105.3499 103° East  Level Estimated
09:29AM 24.5979 105.5006 103° East  Level Estimated
09:30AM 24.5669 105.6512 103° East  Level Estimated
09:31AM 24.5357 105.8017 103° East  Level Estimated
09:32AM 24.5044 105.9521 103° East  Level Estimated
09:33AM 24.4729 106.1025 103° East  Level Estimated
09:34AM 24.4413 106.2528 103° East  Level Estimated
09:35AM 24.4096 106.4030 103° East  Level Estimated
09:36AM 24.3777 106.5532 103° East  Level Estimated
09:37AM 24.3456 106.7032 103° East  Level Estimated
09:38AM 24.3134 106.8532 103° East  Level Estimated
09:39AM 24.2811 107.0032 103° East  Level Estimated
09:40AM 24.2486 107.1530 103° East  Level Estimated
09:41AM 24.2159 107.3028 103° East  Level Estimated
09:42AM 24.1831 107.4525 103° East  Level Estimated
09:43AM 24.1502 107.6021 104° East  Level Estimated
09:44AM 24.1171 107.7516 104° East  Level Estimated
09:45AM 24.0839 107.9011 104° East  Level Estimated
09:46AM 24.0505 108.0505 104° East  Level Estimated
09:47AM 24.0170 108.1998 104° East  Level Estimated
09:48AM 23.9833 108.3490 104° East  Level Estimated
09:49AM 23.9495 108.4981 104° East  Level Estimated
09:50AM 23.9156 108.6472 104° East  Level Estimated
09:51AM 23.8815 108.7962 104° East  Level Estimated
09:52AM 23.8472 108.9451 104° East  Level Estimated
09:53AM 23.8129 109.0939 104° East  Level Estimated
09:54AM 23.7783 109.2427 104° East  Level Estimated
09:55AM 23.7437 109.3913 104° East  Level Estimated
09:56AM 23.7089 109.5399 104° East  Level Estimated
09:57AM 23.6739 109.6885 104° East  Level Estimated
09:58AM 23.6388 109.8369 104° East  Level Estimated
09:59AM 23.6036 109.9853 105° East  Level Estimated
10:00AM 23.5682 110.1335 105° East  Level Estimated
10:01AM 23.5327 110.2817 105° East  Level Estimated
10:02AM 23.4971 110.4298 105° East  Level Estimated
10:03AM 23.4613 110.5779 105° East  Level Estimated
10:04AM 23.4253 110.7258 105° East  Level Estimated
10:05AM 23.3893 110.8737 105° East  Level Estimated
10:06AM 23.3531 111.0215 105° East  Level Estimated
10:07AM 23.3167 111.1692 105° East  Level Estimated
10:08AM 23.2802 111.3168 105° East  Level Estimated
10:09AM 23.2436 111.4644 105° East  Level Estimated
10:10AM 23.2068 111.6119 105° East  Level Estimated
10:11AM 23.1699 111.7592 105° East  Level Estimated
10:12AM 23.1329 111.9066 105° East  Level Estimated
10:13AM 23.0957 112.0538 105° East  Level Estimated
10:14AM 23.0584 112.2009 105° East  Level Estimated
10:15AM 23.0209 112.3480 105° East  Level Estimated
10:16AM 22.9834 112.4950 105° East  Level Estimated
10:17AM 22.9456 112.6419 106° East  Level Estimated
10:18AM 22.9078 112.7887 106° East  Level Estimated
10:19AM 22.8698 112.9354 106° East  Level Estimated
10:20AM 22.8316 113.0821 106° East  Level Estimated
10:21AM 22.7934 113.2286 106° East  Level Estimated
10:22AM 22.7550 113.3751 106° East  Level Estimated
10:23AM 22.7165 113.5215 106° East  Level Estimated
10:24AM 22.6778 113.6679 106° East  Level Estimated
10:25AM 22.6395 113.8124 106° East  Level Estimated
10:26AM 22.6395 113.8124 25° Northeast  Level Estimated
10:27AM 22.6395 113.8124 25° Northeast  Level Estimated
10:28AM 22.6395 113.8124 25° Northeast  Level Estimated
10:29AM 22.6395 113.8124 25° Northeast  Level Estimated
10:30AM 22.6395 113.8124 25° Northeast  Level Estimated
10:31AM 22.6395 113.8124 25° Northeast  Level Estimated
10:32AM 22.6395 113.8124 25° Northeast  Level Estimated
10:33AM 22.6395 113.8124 25° Northeast  Level Estimated